Terminal Aerodrome Forecast
Issued by NWS

Home | Current Version | Previous Version | Text Only | Print | Product List | Glossary On
Versions: 1 2 3 4 5 6 7 8 9 10
885
FTUS41 KILN 260544
TAFLCK
TAF
KLCK 260544Z 2606/2706 13004KT P6SM FEW250
     FM261400 17010KT P6SM FEW250
     FM261700 18012G20KT P6SM FEW250
     FM270000 16010KT P6SM FEW250
     FM270500 16010KT P6SM FEW250 WS020/18040KT=

USA.gov is the U.S. government's official web portal to all federal, state and local government web resources and services.